Flight Track Log - Related Links

Times and Time Zones

All times are in EDT time to prevent confusion due to time zone crossing. See the AAL2137 flight status page for this flight to view local times or setup timezone preferences in your user account.

Time Position Orientation Groundspeed Altitude Reporting Facility
EDT Latitude Longitude Course Direction KTS MPH feet Rate Location/Type
Wed 07:23:57 PM 32.8600 -97.0310 180° South 168 193 2,600  Level FlightAware
Wed 07:24:22 PM 32.8380 -97.0300 178° South 201 231 3,100 1,855 Climbing FlightAware
Wed 07:24:52 PM 32.8060 -97.0300 180° South 220 253 4,300 2,509 Climbing FlightAware
Wed 07:25:17 PM 32.7810 -97.0310 182° South 225 259 5,400 2,047 Climbing FlightAware
Wed 07:27:00 PM 32.5832 -96.9583 157° South  Level FlightAware
Wed 07:27:42 PM 32.6220 -96.9660 157° South 264 304 10,100  Level FlightAware
Wed 07:28:22 PM 32.5700 -96.9420 159° South 303 349 11,000 1,125 Climbing FlightAware
Wed 07:29:02 PM 32.5160 -96.9180 159° South 342 394 11,600 1,200 Climbing FlightAware
Wed 07:29:47 PM 32.4430 -96.8860 160° South 369 425 12,700 1,835 Climbing FlightAware
Wed 07:30:27 PM 32.3810 -96.8580 159° South 375 432 14,200 2,259 Climbing FlightAware
Wed 07:31:12 PM 32.3080 -96.8260 160° South 383 441 15,900 2,364 Climbing FlightAware
Wed 07:31:33 PM 32.2663 -96.8086 161° South 388 447 16,800 2,294 Climbing FlightAware
Wed 07:32:20 PM 32.1861 -96.7781 162° South 398 458 18,500 2,121 Climbing FlightAware
Wed 07:33:12 PM 32.0924 -96.7424 162° South 402 463 20,300 1,929 Climbing FlightAware
Wed 07:33:44 PM 32.0337 -96.7201 162° South 421 484 21,200 1,565 Climbing FlightAware
Wed 07:34:21 PM 31.9644 -96.6938 162° South 434 499 22,100 1,443 Climbing FlightAware
Wed 07:35:03 PM 31.8812 -96.6622 162° South 445 512 23,100 1,412 Climbing FlightAware
Wed 07:35:29 PM 31.8295 -96.6416 161° South 456 525 23,700 1,333 Climbing FlightAware
Wed 07:35:39 PM 31.8109 -96.6339 161° South 455 524 23,900 1,200 Climbing FlightAware
Wed 07:35:59 PM 31.7688 -96.6163 160° South 456 525 24,300 1,091 Climbing FlightAware
Wed 07:36:12 PM 31.7431 -96.6057 161° South 468 539 24,500 1,161 Climbing FlightAware
Wed 07:36:30 PM 31.7057 -96.5902 161° South 472 543 24,900 1,200 Climbing FlightAware
Wed 07:36:52 PM 31.6609 -96.5717 161° South 477 549 25,300 1,161 Climbing FlightAware
Wed 07:37:01 PM 31.6401 -96.5632 161° South 478 550 25,500 1,500 Climbing FlightAware
Wed 07:37:24 PM 31.5924 -96.5437 161° South 482 555 26,100 1,688 Climbing FlightAware
Wed 07:37:33 PM 31.5726 -96.5355 161° South 483 556 26,400 1,500 Climbing FlightAware
Wed 07:37:56 PM 31.5258 -96.5165 161° South 486 559 26,900 1,161 Climbing FlightAware
Wed 07:38:04 PM 31.5083 -96.5095 161° South 487 560 27,000 1,071 Climbing FlightAware
Wed 07:38:24 PM 31.4654 -96.4931 162° South 489 563 27,400 1,161 Climbing FlightAware
Wed 07:38:35 PM 31.4418 -96.4845 163° South 491 565 27,600 1,200 Climbing FlightAware
Wed 07:38:54 PM 31.3995 -96.4690 163° South 493 567 28,000 1,400 Climbing FlightAware
Wed 07:39:05 PM 31.3761 -96.4605 163° South 494 568 28,300 2,000 Climbing FlightAware
Wed 07:39:24 PM 31.3329 -96.4444 162° South 491 565 29,000 2,000 Climbing FlightAware
Wed 07:39:35 PM 31.3107 -96.4361 162° South 488 562 29,300 1,935 Climbing FlightAware
Wed 07:39:55 PM 31.2673 -96.4198 162° South 484 557 30,000 2,200 Climbing FlightAware
Wed 07:40:05 PM 31.2459 -96.4118 162° South 480 552 30,400 1,935 Climbing FlightAware
Wed 07:40:26 PM 31.2011 -96.3950 162° South 478 550 31,000 1,200 Climbing FlightAware
Wed 07:40:35 PM 31.1821 -96.3879 162° South 479 551 31,000  Level FlightAware
Wed 07:40:58 PM 31.1343 -96.3702 162° South 480 552 31,000  Level FlightAware
Wed 07:41:06 PM 31.1178 -96.3641 162° South 480 552 31,000  Level FlightAware
Wed 07:41:31 PM 31.0635 -96.3440 162° South 481 554 31,000  Level FlightAware
Wed 07:41:36 PM 31.0540 -96.3404 162° South 481 554 31,000  Level FlightAware
Wed 07:42:02 PM 30.9989 -96.3198 162° South 480 552 31,000  Level FlightAware
Wed 07:42:06 PM 30.9904 -96.3166 162° South 480 552 31,000  Level FlightAware
Wed 07:42:32 PM 30.9348 -96.2960 162° South 481 554 31,000  Level FlightAware
Wed 07:42:36 PM 30.9263 -96.2929 163° South 481 554 31,000  Level FlightAware
Wed 07:43:03 PM 30.8685 -96.2715 162° South 482 555 31,000  Level FlightAware
Wed 07:43:06 PM 30.8623 -96.2692 162° South 482 555 31,000  Level FlightAware
Wed 07:43:34 PM 30.8037 -96.2477 163° South 483 556 31,000  Level FlightAware
Wed 07:43:37 PM 30.7963 -96.2449 162° South 484 557 31,000  Level FlightAware
Wed 07:44:04 PM 30.7381 -96.2234 162° South 485 558 31,000  Level FlightAware
Wed 07:44:07 PM 30.7317 -96.2211 163° South 485 558 31,000 774 Level FlightAware
Wed 07:44:35 PM 30.6716 -96.1989 162° South 487 560 31,400 774 Climbing FlightAware
Wed 07:44:38 PM 30.6665 -96.1970 162° South 488 562 31,400 1,200 Level FlightAware
Wed 07:45:05 PM 30.6070 -96.1751 162° South 489 563 32,000 1,200 Climbing FlightAware
Wed 07:45:08 PM 30.6005 -96.1728 163° South 489 563 32,000 667 Level FlightAware
Wed 07:45:14 PM 30.5896 -96.1684 161° South 491 565 32,100 1,200 Climbing FlightAware
Wed 07:45:18 PM 30.5795 -96.1638 159° South 495 570 32,200 923 Climbing FlightAware
Wed 07:45:27 PM 30.5620 -96.1543 155° Southeast 500 575 32,300 1,000 Climbing FlightAware
Wed 07:45:36 PM 30.5436 -96.1422 150° Southeast 506 582 32,500 1,333 Climbing FlightAware
Wed 07:45:45 PM 30.5247 -96.1273 146° Southeast 512 589 32,700 1,059 Climbing FlightAware
Wed 07:45:53 PM 30.5095 -96.1135 142° Southeast 516 594 32,800 1,000 Climbing FlightAware
Wed 07:46:15 PM 30.4698 -96.0735 139° Southeast 519 597 33,200 968 Climbing FlightAware
Wed 07:46:24 PM 30.4549 -96.0586 139° Southeast 520 598 33,300 968 Climbing FlightAware
Wed 07:46:46 PM 30.4143 -96.0182 139° Southeast 522 601 33,700 1,200 Climbing FlightAware
Wed 07:46:54 PM 30.3991 -96.0031 139° Southeast 522 601 33,900 1,000 Climbing FlightAware
Wed 07:47:16 PM 30.3585 -95.9628 139° Southeast 524 603 34,200 1,000 Climbing FlightAware
Wed 07:47:24 PM 30.3440 -95.9483 139° Southeast 525 604 34,400 1,029 Climbing FlightAware
Wed 07:47:51 PM 30.2953 -95.8988 139° Southeast 526 605 34,800 800 Climbing FlightAware
Wed 07:47:54 PM 30.2888 -95.8922 139° Southeast 527 606 34,800 400 Level FlightAware
Wed 07:48:21 PM 30.2395 -95.8417 138° Southeast 530 610 35,000 400 Climbing FlightAware
Wed 07:48:24 PM 30.2337 -95.8357 138° Southeast 530 610 35,000  Level FlightAware
Wed 07:48:51 PM 30.1839 -95.7847 138° Southeast 531 611 35,000  Level FlightAware
Wed 07:48:54 PM 30.1785 -95.7792 139° Southeast 532 612 35,000  Level FlightAware
Wed 07:49:25 PM 30.1228 -95.7225 139° Southeast 532 612 35,000  Level FlightAware
Wed 07:49:55 PM 30.0668 -95.6660 139° Southeast 532 612 35,000  Level FlightAware
Wed 07:49:56 PM 30.0650 -95.6642 139° Southeast 532 612 35,000  Level FlightAware
Wed 07:50:25 PM 30.0109 -95.6095 139° Southeast 533 613 35,000  Level FlightAware
Wed 07:50:26 PM 30.0092 -95.6078 139° Southeast 533 613 35,000  Level FlightAware
Wed 07:50:55 PM 29.9544 -95.5525 139° Southeast 532 612 35,000  Level FlightAware
Wed 07:50:57 PM 29.9509 -95.5489 138° Southeast 532 612 35,000  Level FlightAware
Wed 07:51:28 PM 29.8947 -95.4922 139° Southeast 534 615 35,000  Level FlightAware
Wed 07:51:29 PM 29.8927 -95.4901 138° Southeast 534 615 35,000  Level FlightAware
Wed 07:51:58 PM 29.8383 -95.4354 139° Southeast 534 615 35,000  Level FlightAware
Wed 07:52:01 PM 29.8335 -95.4306 139° Southeast 534 615 35,000  Level FlightAware
Wed 07:52:28 PM 29.7822 -95.3791 139° Southeast 536 617 35,000  Level FlightAware
Wed 07:52:31 PM 29.7768 -95.3736 139° Southeast 536 617 35,000  Level FlightAware
Wed 07:53:01 PM 29.7216 -95.3182 139° Southeast 535 616 35,000  Level FlightAware
Wed 07:53:31 PM 29.6648 -95.2616 139° Southeast 532 612 35,000  Level FlightAware
Wed 07:53:32 PM 29.6628 -95.2595 138° Southeast 532 612 35,000  Level FlightAware
Wed 07:54:01 PM 29.6096 -95.2063 139° Southeast 525 604 35,000  Level FlightAware
Wed 07:54:04 PM 29.6042 -95.2009 139° Southeast 525 604 35,000 774 Level FlightAware
Wed 07:54:32 PM 29.5528 -95.1494 139° Southeast 527 606 35,400 1,000 Climbing FlightAware
Wed 07:54:34 PM 29.5485 -95.1452 140° Southeast 527 606 35,500 774 Climbing FlightAware
Wed 07:55:03 PM 29.4965 -95.0934 139° Southeast 532 612 35,800 581 Climbing FlightAware
Wed 07:55:05 PM 29.4926 -95.0895 139° Southeast 532 612 35,800 600 Level FlightAware
Wed 07:55:33 PM 29.4403 -95.0377 139° Southeast 535 616 36,100 774 Climbing FlightAware
Wed 07:55:36 PM 29.4342 -95.0315 138° Southeast 535 616 36,200 800 Climbing FlightAware
Wed 07:56:03 PM 29.3830 -94.9808 139° Southeast 537 618 36,500 571 Climbing FlightAware
Wed 07:56:18 PM 29.3550 -94.9529 139° Southeast 537 618 36,600 391 Climbing FlightAware
Wed 07:56:49 PM 29.2968 -94.8951 139° Southeast 545 627 36,800 375 Climbing FlightAware
Wed 07:57:06 PM 29.2618 -94.8645 143° Southeast 543 625 36,900 387 Climbing FlightAware
Wed 07:57:20 PM 29.2335 -94.8432 147° Southeast 542 624 37,000 353 Climbing FlightAware
Wed 07:57:23 PM 29.2270 -94.8388 149° Southeast 542 624 37,000  Level FlightAware
Wed 07:57:53 PM 29.1621 -94.7945 149° Southeast 540 621 37,000  Level FlightAware
Wed 07:58:24 PM 29.0943 -94.7486 149° Southeast 540 621 37,000  Level FlightAware
Wed 07:58:55 PM 29.0283 -94.7039 149° Southeast 540 621 37,000  Level FlightAware
Wed 07:59:28 PM 28.9583 -94.6566 149° Southeast 539 620 37,000  Level FlightAware
Wed 07:59:58 PM 28.8932 -94.6127 149° Southeast 537 618 37,000  Level FlightAware
Wed 08:00:31 PM 28.8228 -94.5653 149° Southeast 537 618 37,000  Level FlightAware
Wed 08:01:03 PM 28.7538 -94.5190 150° Southeast 534 615 37,000  Level FlightAware
Wed 08:01:34 PM 28.6878 -94.4747 150° Southeast 534 615 37,000  Level FlightAware
Wed 08:02:05 PM 28.6225 -94.4309 150° Southeast 534 615 37,000  Level FlightAware
Wed 08:02:36 PM 28.5566 -94.3868 150° Southeast 533 613 37,000  Level FlightAware
Wed 08:03:21 PM 28.4612 -94.3230 150° Southeast 532 612 37,000  Level FlightAware
Wed 08:03:53 PM 28.3929 -94.2773 150° Southeast 532 612 37,000  Level FlightAware
Wed 08:04:23 PM 28.3290 -94.2346 150° Southeast 532 612 37,000  Level FlightAware
Wed 08:05:19 PM 28.2111 -94.1562 150° Southeast 532 612 37,000  Level FlightAware
Wed 08:06:22 PM 28.0990 -94.0800 149° Southeast 532 612 37,000  Level FlightAware
Wed 08:07:02 PM 28.0280 -94.0310 149° Southeast 532 612 37,000  Level FlightAware
Wed 08:07:42 PM 27.9560 -93.9820 149° Southeast 532 612 37,000  Level FlightAware
Wed 08:08:32 PM 27.8660 -93.9210 149° Southeast 532 612 37,000  Level FlightAware
Wed 08:09:12 PM 27.7950 -93.8730 149° Southeast 532 612 37,000  Level FlightAware
Wed 08:09:52 PM 27.7230 -93.8240 149° Southeast 532 612 37,000  Level FlightAware
Wed 08:10:32 PM 27.6510 -93.7750 149° Southeast 532 612 37,000  Level FlightAware
Wed 08:11:12 PM 27.5790 -93.7270 149° Southeast 532 612 37,000  Level FlightAware
Wed 08:12:02 PM 27.4900 -93.6660 149° Southeast 532 612 37,000  Level FlightAware
Wed 08:12:42 PM 27.4180 -93.6170 149° Southeast 532 612 37,000  Level FlightAware
Wed 08:13:22 PM 27.3460 -93.5690 149° Southeast 532 612 37,000  Level FlightAware
Wed 08:14:02 PM 27.2750 -93.5200 148° Southeast 532 612 37,000  Level FlightAware
Wed 08:14:52 PM 27.1850 -93.4600 149° Southeast 532 612 37,000  Level FlightAware
Wed 08:15:57 PM 27.0231 -93.0361 149° Southeast 531 611 37,000  Level Houston Center
Wed 08:16:59 PM 26.8917 -92.9158 141° Southeast 531 611 37,000  Level Houston Center
Wed 08:18:00 PM 26.7906 -92.8271 149° Southeast  Level FlightAware
Wed 08:25:00 PM 26.0287 -92.3268 150° Southeast  Level FlightAware
Wed 08:26:00 PM 25.9196 -92.2560 150° Southeast  Level FlightAware
Wed 08:27:00 PM 25.8101 -92.1861 152° Southeast  Level FlightAware
Wed 08:28:00 PM 25.6990 -92.1194 152° Southeast  Level FlightAware
Wed 08:29:00 PM 25.5910 -92.0470 148° Southeast  Level FlightAware
Wed 08:30:00 PM 25.4842 -91.9723 148° Southeast  Level FlightAware
Wed 08:31:00 PM 25.3775 -91.8975 148° Southeast  Level FlightAware
Wed 08:32:00 PM 25.2695 -91.8251 149° Southeast  Level FlightAware
Wed 08:33:00 PM 25.1607 -91.7543 150° Southeast  Level FlightAware
Wed 08:34:00 PM 25.0518 -91.6836 150° Southeast  Level FlightAware
Wed 08:35:00 PM 24.9427 -91.6135 150° Southeast  Level FlightAware
Wed 08:36:00 PM 24.8333 -91.5441 150° Southeast  Level FlightAware
Wed 08:37:00 PM 24.7238 -91.4747 150° Southeast  Level FlightAware
Wed 08:38:00 PM 24.6143 -91.4055 150° Southeast  Level FlightAware
Wed 08:39:00 PM 24.5048 -91.3363 150° Southeast  Level FlightAware
Wed 08:40:00 PM 24.3901 -91.2783 155° Southeast  Level FlightAware
Wed 08:41:00 PM 24.2752 -91.2209 156° South  Level FlightAware
Wed 08:42:00 PM 24.1598 -91.1647 156° South  Level FlightAware
Wed 08:43:00 PM 24.0443 -91.1086 156° South  Level FlightAware
Wed 08:44:00 PM 23.9288 -91.0527 156° South  Level FlightAware
Wed 08:45:00 PM 23.8133 -90.9969 156° South  Level FlightAware
Wed 08:46:00 PM 23.6978 -90.9411 156° South  Level FlightAware
Wed 08:47:00 PM 23.5823 -90.8855 156° South  Level FlightAware
Wed 08:48:00 PM 23.4667 -90.8299 156° South  Level FlightAware
Wed 08:49:00 PM 23.3511 -90.7745 156° South  Level FlightAware
Wed 08:50:00 PM 23.2354 -90.7196 157° South  Level FlightAware
Wed 08:51:00 PM 23.1194 -90.6651 157° South  Level FlightAware
Wed 08:52:00 PM 23.0035 -90.6107 157° South  Level FlightAware
Wed 08:53:00 PM 22.8876 -90.5564 157° South  Level FlightAware
Wed 08:54:00 PM 22.7716 -90.5021 157° South  Level FlightAware
Wed 08:55:00 PM 22.6556 -90.4480 157° South  Level FlightAware
Wed 08:56:00 PM 22.5396 -90.3940 157° South  Level FlightAware
Wed 08:57:00 PM 22.4236 -90.3399 157° South  Level FlightAware
Wed 08:58:00 PM 22.3077 -90.2858 157° South  Level FlightAware
Wed 08:59:00 PM 22.1917 -90.2318 157° South  Level FlightAware
Wed 09:00:00 PM 22.0757 -90.1778 157° South  Level FlightAware
Wed 09:01:00 PM 21.9597 -90.1240 157° South  Level FlightAware
Wed 09:02:00 PM 21.8437 -90.0703 157° South  Level FlightAware
Wed 09:03:00 PM 21.7240 -90.0149 157° South  Level FlightAware
Wed 09:04:00 PM 21.6042 -89.9596 157° South  Level FlightAware
Wed 09:05:00 PM 21.4845 -89.9042 157° South  Level FlightAware
Wed 09:06:00 PM 21.3649 -89.8488 157° South  Level FlightAware
Wed 09:07:00 PM 21.2452 -89.7936 157° South  Level FlightAware
Wed 09:08:00 PM 21.1255 -89.7384 157° South  Level FlightAware
Wed 09:09:00 PM 21.0057 -89.6833 157° South  Level FlightAware
Wed 09:10:00 PM 20.8820 -89.6459 176° South  Level FlightAware
Wed 09:11:00 PM 20.7520 -89.6356 176° South  Level FlightAware
Wed 09:12:00 PM 20.6221 -89.6254 176° South  Level FlightAware
Wed 09:13:00 PM 20.4921 -89.6151 176° South  Level FlightAware
Wed 09:14:00 PM 20.3622 -89.6049 176° South  Level FlightAware
Wed 09:15:00 PM 20.2322 -89.5947 176° South  Level FlightAware
Wed 09:16:00 PM 20.1023 -89.5845 176° South  Level FlightAware
Wed 09:17:00 PM 19.9723 -89.5743 176° South  Level FlightAware
Wed 09:18:00 PM 19.8424 -89.5641 176° South  Level FlightAware
Wed 09:19:00 PM 19.7124 -89.5539 176° South  Level FlightAware
Wed 09:20:00 PM 19.5825 -89.5438 176° South  Level FlightAware
Wed 09:21:00 PM 19.4525 -89.5337 176° South  Level FlightAware
Wed 09:22:00 PM 19.3226 -89.5236 176° South  Level FlightAware
Wed 09:23:00 PM 19.1925 -89.5147 177° South  Level FlightAware
Wed 09:24:00 PM 19.0623 -89.5087 177° South  Level FlightAware
Wed 09:25:00 PM 18.9322 -89.5026 177° South  Level FlightAware
Wed 09:26:00 PM 18.7994 -89.4964 177° South  Level FlightAware
Wed 09:27:00 PM 18.6667 -89.4902 177° South  Level FlightAware
Wed 09:28:00 PM 18.5340 -89.4840 177° South  Level FlightAware
Wed 09:29:00 PM 18.4013 -89.4778 177° South  Level FlightAware
Wed 09:30:00 PM 18.2686 -89.4717 177° South  Level FlightAware
Wed 09:31:00 PM 18.1359 -89.4655 177° South  Level FlightAware
Wed 09:32:00 PM 18.0032 -89.4594 177° South  Level FlightAware
Wed 09:33:00 PM 17.8705 -89.4532 177° South  Level FlightAware
Wed 09:34:00 PM 17.7380 -89.4431 174° South  Level FlightAware
Wed 09:35:00 PM 17.6058 -89.4296 175° South  Level FlightAware
Wed 09:36:00 PM 17.4734 -89.4183 175° South  Level FlightAware
Wed 09:37:00 PM 17.3410 -89.4070 175° South  Level FlightAware
Wed 09:38:00 PM 17.2086 -89.3957 175° South  Level FlightAware
Wed 09:39:00 PM 17.0762 -89.3845 175° South  Level FlightAware
Wed 09:40:00 PM 16.9438 -89.3732 175° South  Level FlightAware
Wed 09:41:00 PM 16.8112 -89.3667 180° South  Level FlightAware
Wed 09:42:00 PM 16.6974 -89.4349 210° Southwest  Level FlightAware
Wed 09:43:00 PM 16.5827 -89.5048 210° Southwest  Level FlightAware
Wed 09:44:00 PM 16.4680 -89.5747 210° Southwest  Level FlightAware
Wed 09:45:00 PM 16.3532 -89.6444 210° Southwest  Level FlightAware
Wed 09:46:00 PM 16.2358 -89.7089 211° Southwest  Level FlightAware
Wed 09:47:00 PM 16.1219 -89.7801 211° Southwest  Level FlightAware
Wed 09:48:00 PM 16.0122 -89.8580 214° Southwest  Level FlightAware
Wed 09:49:00 PM 15.8977 -89.9281 210° Southwest  Level FlightAware
Wed 09:50:00 PM 15.7827 -89.9971 210° Southwest  Level FlightAware
Wed 09:51:00 PM 15.6654 -90.0618 207° Southwest  Level FlightAware
Wed 09:52:00 PM 15.5472 -90.1248 207° Southwest  Level FlightAware
Wed 09:53:00 PM 15.4329 -90.1947 213° Southwest  Level FlightAware
Wed 09:54:00 PM 15.3212 -90.2692 213° Southwest  Level FlightAware
Wed 09:55:00 PM 15.2078 -90.3410 211° Southwest  Level FlightAware
Wed 09:56:00 PM 15.0933 -90.4107 210° Southwest  Level FlightAware
Wed 09:57:00 PM 14.9749 -90.4667 180° South  Level FlightAware

Login

Don't have an account? Register now (free) for customized features, flight alerts, and more!